sensor_id;sensor_type;location;lat;lon;timestamp;P1;durP1;ratioP1;P2;durP2;ratioP2
351;SDS011;164;50.784;6.496;2023-04-15T00:00:30;3.20;;;2.45;;
351;SDS011;164;50.784;6.496;2023-04-15T00:02:58;4.38;;;2.75;;
351;SDS011;164;50.784;6.496;2023-04-15T00:05:28;4.00;;;2.90;;
351;SDS011;164;50.784;6.496;2023-04-15T00:07:55;6.75;;;3.50;;
351;SDS011;164;50.784;6.496;2023-04-15T00:10:23;5.13;;;2.80;;
351;SDS011;164;50.784;6.496;2023-04-15T00:12:50;4.28;;;2.38;;
351;SDS011;164;50.784;6.496;2023-04-15T00:15:17;4.68;;;2.60;;
351;SDS011;164;50.784;6.496;2023-04-15T00:17:45;2.67;;;2.47;;
351;SDS011;164;50.784;6.496;2023-04-15T00:20:12;3.80;;;2.70;;
351;SDS011;164;50.784;6.496;2023-04-15T00:22:41;5.00;;;2.50;;
351;SDS011;164;50.784;6.496;2023-04-15T00:25:08;6.25;;;2.85;;
351;SDS011;164;50.784;6.496;2023-04-15T00:27:35;3.50;;;2.65;;
351;SDS011;164;50.784;6.496;2023-04-15T00:30:03;3.20;;;2.10;;
351;SDS011;164;50.784;6.496;2023-04-15T00:32:31;3.92;;;2.63;;
351;SDS011;164;50.784;6.496;2023-04-15T00:34:58;3.63;;;3.40;;
351;SDS011;164;50.784;6.496;2023-04-15T00:37:26;3.80;;;2.80;;
351;SDS011;164;50.784;6.496;2023-04-15T00:39:55;5.97;;;3.22;;
351;SDS011;164;50.784;6.496;2023-04-15T00:42:22;4.05;;;3.10;;
351;SDS011;164;50.784;6.496;2023-04-15T00:44:50;5.35;;;2.83;;
351;SDS011;164;50.784;6.496;2023-04-15T00:47:17;3.20;;;2.50;;
351;SDS011;164;50.784;6.496;2023-04-15T00:49:45;2.40;;;2.03;;
351;SDS011;164;50.784;6.496;2023-04-15T00:52:12;3.35;;;3.00;;
351;SDS011;164;50.784;6.496;2023-04-15T00:54:39;2.85;;;2.15;;
351;SDS011;164;50.784;6.496;2023-04-15T00:57:08;2.55;;;2.17;;
351;SDS011;164;50.784;6.496;2023-04-15T00:59:35;3.10;;;2.33;;
351;SDS011;164;50.784;6.496;2023-04-15T01:02:03;6.72;;;3.50;;
351;SDS011;164;50.784;6.496;2023-04-15T01:04:31;4.55;;;2.58;;
351;SDS011;164;50.784;6.496;2023-04-15T01:06:58;4.35;;;2.70;;
351;SDS011;164;50.784;6.496;2023-04-15T01:09:25;7.47;;;2.85;;
351;SDS011;164;50.784;6.496;2023-04-15T01:11:52;6.13;;;2.80;;
351;SDS011;164;50.784;6.496;2023-04-15T01:14:21;4.50;;;2.67;;
351;SDS011;164;50.784;6.496;2023-04-15T01:16:49;3.95;;;2.67;;
351;SDS011;164;50.784;6.496;2023-04-15T01:19:16;3.75;;;2.00;;
351;SDS011;164;50.784;6.496;2023-04-15T01:21:43;5.15;;;2.30;;
351;SDS011;164;50.784;6.496;2023-04-15T01:24:11;2.80;;;2.60;;
351;SDS011;164;50.784;6.496;2023-04-15T01:26:40;4.50;;;2.05;;
351;SDS011;164;50.784;6.496;2023-04-15T01:29:08;4.80;;;2.58;;
351;SDS011;164;50.784;6.496;2023-04-15T01:31:35;3.97;;;1.95;;
351;SDS011;164;50.784;6.496;2023-04-15T01:34:02;5.15;;;2.97;;
351;SDS011;164;50.784;6.496;2023-04-15T01:36:30;4.07;;;2.70;;
351;SDS011;164;50.784;6.496;2023-04-15T01:38:57;3.13;;;2.50;;
351;SDS011;164;50.784;6.496;2023-04-15T01:41:25;6.45;;;2.63;;
351;SDS011;164;50.784;6.496;2023-04-15T01:43:53;5.53;;;2.80;;
351;SDS011;164;50.784;6.496;2023-04-15T01:46:27;3.72;;;3.15;;
351;SDS011;164;50.784;6.496;2023-04-15T01:48:54;5.07;;;2.60;;
351;SDS011;164;50.784;6.496;2023-04-15T01:51:21;2.13;;;1.90;;
351;SDS011;164;50.784;6.496;2023-04-15T01:53:49;1.75;;;1.65;;
351;SDS011;164;50.784;6.496;2023-04-15T01:56:16;2.60;;;1.80;;
351;SDS011;164;50.784;6.496;2023-04-15T01:58:43;6.65;;;3.88;;
351;SDS011;164;50.784;6.496;2023-04-15T02:01:12;2.15;;;1.77;;
351;SDS011;164;50.784;6.496;2023-04-15T02:03:40;2.15;;;1.80;;
351;SDS011;164;50.784;6.496;2023-04-15T02:06:08;2.55;;;2.33;;
351;SDS011;164;50.784;6.496;2023-04-15T02:08:35;4.03;;;2.72;;
351;SDS011;164;50.784;6.496;2023-04-15T02:11:02;3.08;;;2.20;;
351;SDS011;164;50.784;6.496;2023-04-15T02:13:30;3.92;;;1.90;;
351;SDS011;164;50.784;6.496;2023-04-15T02:15:57;2.80;;;1.70;;
351;SDS011;164;50.784;6.496;2023-04-15T02:18:26;2.72;;;2.53;;
351;SDS011;164;50.784;6.496;2023-04-15T02:20:53;2.72;;;2.20;;
351;SDS011;164;50.784;6.496;2023-04-15T02:23:22;2.65;;;1.83;;
351;SDS011;164;50.784;6.496;2023-04-15T02:25:49;2.25;;;1.90;;
351;SDS011;164;50.784;6.496;2023-04-15T02:28:17;2.65;;;1.80;;
351;SDS011;164;50.784;6.496;2023-04-15T02:30:46;2.28;;;2.05;;
351;SDS011;164;50.784;6.496;2023-04-15T02:33:14;3.13;;;2.33;;
351;SDS011;164;50.784;6.496;2023-04-15T02:35:43;2.40;;;2.20;;
351;SDS011;164;50.784;6.496;2023-04-15T02:38:10;2.78;;;1.90;;
351;SDS011;164;50.784;6.496;2023-04-15T02:40:40;2.50;;;1.73;;
351;SDS011;164;50.784;6.496;2023-04-15T02:43:08;2.30;;;2.00;;
351;SDS011;164;50.784;6.496;2023-04-15T02:45:35;5.80;;;3.83;;
351;SDS011;164;50.784;6.496;2023-04-15T02:48:02;3.08;;;2.10;;
351;SDS011;164;50.784;6.496;2023-04-15T02:50:30;4.28;;;1.90;;
351;SDS011;164;50.784;6.496;2023-04-15T02:52:59;4.53;;;2.58;;
351;SDS011;164;50.784;6.496;2023-04-15T02:55:26;3.80;;;2.00;;
351;SDS011;164;50.784;6.496;2023-04-15T02:57:54;3.22;;;2.30;;
351;SDS011;164;50.784;6.496;2023-04-15T03:00:22;3.85;;;1.95;;
351;SDS011;164;50.784;6.496;2023-04-15T03:02:50;5.18;;;3.03;;
351;SDS011;164;50.784;6.496;2023-04-15T03:05:20;4.82;;;2.58;;
351;SDS011;164;50.784;6.496;2023-04-15T03:07:48;3.38;;;1.77;;
351;SDS011;164;50.784;6.496;2023-04-15T03:10:17;2.83;;;2.33;;
351;SDS011;164;50.784;6.496;2023-04-15T03:12:44;2.53;;;2.20;;
351;SDS011;164;50.784;6.496;2023-04-15T03:15:11;3.50;;;2.17;;
351;SDS011;164;50.784;6.496;2023-04-15T03:17:39;3.40;;;2.40;;
351;SDS011;164;50.784;6.496;2023-04-15T03:20:06;3.53;;;2.47;;
351;SDS011;164;50.784;6.496;2023-04-15T03:22:34;3.85;;;2.33;;
351;SDS011;164;50.784;6.496;2023-04-15T03:25:01;8.95;;;2.40;;
351;SDS011;164;50.784;6.496;2023-04-15T03:27:30;3.05;;;2.75;;
351;SDS011;164;50.784;6.496;2023-04-15T03:29:57;3.03;;;2.50;;
351;SDS011;164;50.784;6.496;2023-04-15T03:32:24;2.92;;;2.70;;
351;SDS011;164;50.784;6.496;2023-04-15T03:34:51;2.50;;;2.30;;
351;SDS011;164;50.784;6.496;2023-04-15T03:43:00;3.05;;;2.42;;
351;SDS011;164;50.784;6.496;2023-04-15T03:45:27;7.40;;;2.80;;
351;SDS011;164;50.784;6.496;2023-04-15T03:47:54;3.47;;;2.30;;
351;SDS011;164;50.784;6.496;2023-04-15T03:50:21;5.32;;;2.38;;
351;SDS011;164;50.784;6.496;2023-04-15T03:52:49;2.72;;;2.40;;
351;SDS011;164;50.784;6.496;2023-04-15T03:55:16;4.50;;;2.95;;
351;SDS011;164;50.784;6.496;2023-04-15T03:57:43;4.60;;;2.67;;
351;SDS011;164;50.784;6.496;2023-04-15T04:00:12;5.15;;;3.25;;
351;SDS011;164;50.784;6.496;2023-04-15T04:02:42;4.15;;;2.40;;
351;SDS011;164;50.784;6.496;2023-04-15T04:05:10;2.00;;;1.85;;
351;SDS011;164;50.784;6.496;2023-04-15T04:07:37;2.85;;;2.67;;
351;SDS011;164;50.784;6.496;2023-04-15T04:10:04;3.78;;;2.90;;
351;SDS011;164;50.784;6.496;2023-04-15T04:12:32;3.88;;;3.53;;
351;SDS011;164;50.784;6.496;2023-04-15T04:15:00;4.68;;;2.50;;
351;SDS011;164;50.784;6.496;2023-04-15T04:17:28;3.53;;;2.38;;
351;SDS011;164;50.784;6.496;2023-04-15T04:19:55;3.55;;;2.58;;
351;SDS011;164;50.784;6.496;2023-04-15T04:22:23;3.03;;;2.80;;
351;SDS011;164;50.784;6.496;2023-04-15T04:24:50;6.20;;;2.50;;
351;SDS011;164;50.784;6.496;2023-04-15T04:27:17;6.60;;;2.55;;
351;SDS011;164;50.784;6.496;2023-04-15T04:29:44;2.90;;;2.60;;
351;SDS011;164;50.784;6.496;2023-04-15T04:32:13;3.08;;;2.55;;
351;SDS011;164;50.784;6.496;2023-04-15T04:34:42;5.10;;;2.78;;
351;SDS011;164;50.784;6.496;2023-04-15T04:37:09;3.15;;;1.92;;
351;SDS011;164;50.784;6.496;2023-04-15T04:39:36;3.78;;;2.80;;
351;SDS011;164;50.784;6.496;2023-04-15T04:42:04;2.80;;;2.45;;
351;SDS011;164;50.784;6.496;2023-04-15T04:44:31;5.07;;;2.50;;
351;SDS011;164;50.784;6.496;2023-04-15T04:46:58;3.08;;;2.08;;
351;SDS011;164;50.784;6.496;2023-04-15T04:49:25;3.42;;;2.25;;
351;SDS011;164;50.784;6.496;2023-04-15T04:51:56;3.40;;;2.10;;
351;SDS011;164;50.784;6.496;2023-04-15T04:54:23;3.75;;;2.70;;
351;SDS011;164;50.784;6.496;2023-04-15T04:56:51;6.72;;;2.65;;
351;SDS011;164;50.784;6.496;2023-04-15T04:59:18;4.20;;;2.70;;
351;SDS011;164;50.784;6.496;2023-04-15T05:01:46;2.40;;;2.00;;
351;SDS011;164;50.784;6.496;2023-04-15T05:04:13;2.42;;;2.15;;
351;SDS011;164;50.784;6.496;2023-04-15T05:06:40;2.08;;;1.92;;
351;SDS011;164;50.784;6.496;2023-04-15T05:09:09;2.70;;;2.55;;
351;SDS011;164;50.784;6.496;2023-04-15T05:11:36;4.53;;;3.00;;
351;SDS011;164;50.784;6.496;2023-04-15T05:14:03;4.43;;;2.70;;
351;SDS011;164;50.784;6.496;2023-04-15T05:16:30;4.13;;;2.90;;
351;SDS011;164;50.784;6.496;2023-04-15T05:18:58;4.35;;;2.40;;
351;SDS011;164;50.784;6.496;2023-04-15T05:21:25;2.55;;;2.22;;
351;SDS011;164;50.784;6.496;2023-04-15T05:23:52;5.10;;;2.83;;
351;SDS011;164;50.784;6.496;2023-04-15T05:26:21;2.42;;;2.05;;
351;SDS011;164;50.784;6.496;2023-04-15T05:28:48;5.80;;;2.60;;
351;SDS011;164;50.784;6.496;2023-04-15T05:31:15;3.50;;;2.30;;
351;SDS011;164;50.784;6.496;2023-04-15T05:33:43;4.70;;;1.95;;
351;SDS011;164;50.784;6.496;2023-04-15T05:36:10;2.47;;;2.20;;
351;SDS011;164;50.784;6.496;2023-04-15T05:38:37;2.60;;;2.20;;
351;SDS011;164;50.784;6.496;2023-04-15T05:41:04;2.67;;;2.47;;
351;SDS011;164;50.784;6.496;2023-04-15T05:43:33;5.80;;;4.95;;
351;SDS011;164;50.784;6.496;2023-04-15T05:46:00;4.75;;;4.45;;
351;SDS011;164;50.784;6.496;2023-04-15T05:48:27;6.10;;;4.82;;
351;SDS011;164;50.784;6.496;2023-04-15T05:50:54;5.60;;;5.30;;
351;SDS011;164;50.784;6.496;2023-04-15T05:53:21;3.25;;;3.10;;
351;SDS011;164;50.784;6.496;2023-04-15T05:55:49;3.30;;;2.65;;
351;SDS011;164;50.784;6.496;2023-04-15T05:58:16;3.92;;;2.20;;
351;SDS011;164;50.784;6.496;2023-04-15T06:00:44;3.35;;;2.30;;
351;SDS011;164;50.784;6.496;2023-04-15T06:03:12;3.15;;;2.50;;
351;SDS011;164;50.784;6.496;2023-04-15T06:05:39;4.53;;;2.90;;
351;SDS011;164;50.784;6.496;2023-04-15T06:08:06;2.50;;;2.30;;
351;SDS011;164;50.784;6.496;2023-04-15T06:10:34;5.32;;;2.50;;
351;SDS011;164;50.784;6.496;2023-04-15T06:13:01;2.75;;;2.55;;
351;SDS011;164;50.784;6.496;2023-04-15T06:15:29;2.50;;;2.30;;
351;SDS011;164;50.784;6.496;2023-04-15T06:17:57;3.00;;;2.25;;
351;SDS011;164;50.784;6.496;2023-04-15T06:20:24;3.17;;;2.08;;
351;SDS011;164;50.784;6.496;2023-04-15T06:22:52;2.58;;;2.40;;
351;SDS011;164;50.784;6.496;2023-04-15T06:25:20;2.67;;;2.17;;
351;SDS011;164;50.784;6.496;2023-04-15T06:27:48;4.03;;;2.30;;
351;SDS011;164;50.784;6.496;2023-04-15T06:30:15;4.32;;;2.30;;
351;SDS011;164;50.784;6.496;2023-04-15T06:32:42;3.17;;;2.25;;
351;SDS011;164;50.784;6.496;2023-04-15T06:35:11;2.85;;;2.53;;
351;SDS011;164;50.784;6.496;2023-04-15T06:37:39;3.80;;;2.65;;
351;SDS011;164;50.784;6.496;2023-04-15T06:40:07;6.72;;;2.50;;
351;SDS011;164;50.784;6.496;2023-04-15T06:42:35;3.80;;;3.08;;
351;SDS011;164;50.784;6.496;2023-04-15T06:45:02;4.10;;;2.85;;
351;SDS011;164;50.784;6.496;2023-04-15T06:47:31;3.60;;;2.30;;
351;SDS011;164;50.784;6.496;2023-04-15T06:50:00;2.95;;;2.28;;
351;SDS011;164;50.784;6.496;2023-04-15T06:52:29;4.53;;;3.28;;
351;SDS011;164;50.784;6.496;2023-04-15T06:54:56;4.80;;;3.83;;
351;SDS011;164;50.784;6.496;2023-04-15T06:57:25;5.88;;;3.15;;
351;SDS011;164;50.784;6.496;2023-04-15T06:59:53;3.70;;;2.47;;
351;SDS011;164;50.784;6.496;2023-04-15T07:02:20;3.40;;;3.20;;
351;SDS011;164;50.784;6.496;2023-04-15T07:04:47;4.50;;;2.65;;
351;SDS011;164;50.784;6.496;2023-04-15T07:07:15;3.85;;;2.38;;
351;SDS011;164;50.784;6.496;2023-04-15T07:09:44;3.17;;;2.60;;
351;SDS011;164;50.784;6.496;2023-04-15T07:12:11;5.07;;;3.05;;
351;SDS011;164;50.784;6.496;2023-04-15T07:14:38;3.83;;;2.70;;
351;SDS011;164;50.784;6.496;2023-04-15T07:17:05;4.05;;;3.20;;
351;SDS011;164;50.784;6.496;2023-04-15T07:19:32;3.47;;;2.92;;
351;SDS011;164;50.784;6.496;2023-04-15T07:22:00;3.88;;;3.67;;
351;SDS011;164;50.784;6.496;2023-04-15T07:24:27;8.60;;;4.50;;
351;SDS011;164;50.784;6.496;2023-04-15T07:26:56;5.20;;;4.20;;
351;SDS011;164;50.784;6.496;2023-04-15T07:29:24;5.13;;;4.82;;
351;SDS011;164;50.784;6.496;2023-04-15T07:31:51;7.47;;;4.45;;
351;SDS011;164;50.784;6.496;2023-04-15T07:34:18;5.10;;;4.70;;
351;SDS011;164;50.784;6.496;2023-04-15T07:36:46;5.22;;;4.55;;
351;SDS011;164;50.784;6.496;2023-04-15T07:39:14;4.45;;;4.15;;
351;SDS011;164;50.784;6.496;2023-04-15T07:41:41;5.18;;;4.88;;
351;SDS011;164;50.784;6.496;2023-04-15T07:44:10;4.97;;;4.70;;
351;SDS011;164;50.784;6.496;2023-04-15T07:46:37;6.68;;;5.25;;
351;SDS011;164;50.784;6.496;2023-04-15T07:49:05;6.45;;;6.07;;
351;SDS011;164;50.784;6.496;2023-04-15T07:51:32;5.50;;;5.20;;
351;SDS011;164;50.784;6.496;2023-04-15T07:53:59;6.80;;;5.28;;
351;SDS011;164;50.784;6.496;2023-04-15T07:56:28;8.38;;;6.03;;
351;SDS011;164;50.784;6.496;2023-04-15T07:58:55;7.22;;;5.50;;
351;SDS011;164;50.784;6.496;2023-04-15T08:01:24;5.75;;;5.45;;
351;SDS011;164;50.784;6.496;2023-04-15T08:03:51;9.88;;;5.90;;
351;SDS011;164;50.784;6.496;2023-04-15T08:06:19;11.10;;;6.00;;
351;SDS011;164;50.784;6.496;2023-04-15T08:08:46;7.47;;;6.35;;
351;SDS011;164;50.784;6.496;2023-04-15T08:11:13;9.40;;;6.60;;
351;SDS011;164;50.784;6.496;2023-04-15T08:13:41;8.70;;;7.00;;
351;SDS011;164;50.784;6.496;2023-04-15T08:16:12;8.20;;;7.80;;
351;SDS011;164;50.784;6.496;2023-04-15T08:18:41;8.02;;;7.45;;
351;SDS011;164;50.784;6.496;2023-04-15T08:21:09;7.65;;;7.25;;
351;SDS011;164;50.784;6.496;2023-04-15T08:23:36;11.27;;;7.80;;
351;SDS011;164;50.784;6.496;2023-04-15T08:26:03;10.23;;;9.13;;
351;SDS011;164;50.784;6.496;2023-04-15T08:28:32;8.75;;;8.25;;
351;SDS011;164;50.784;6.496;2023-04-15T08:30:59;13.25;;;10.20;;
351;SDS011;164;50.784;6.496;2023-04-15T08:33:26;11.88;;;10.45;;
351;SDS011;164;50.784;6.496;2023-04-15T08:35:55;8.57;;;8.10;;
351;SDS011;164;50.784;6.496;2023-04-15T08:38:23;12.07;;;9.60;;
351;SDS011;164;50.784;6.496;2023-04-15T08:40:50;10.95;;;9.25;;
351;SDS011;164;50.784;6.496;2023-04-15T08:43:20;12.38;;;9.95;;
351;SDS011;164;50.784;6.496;2023-04-15T08:45:48;10.32;;;9.82;;
351;SDS011;164;50.784;6.496;2023-04-15T08:48:17;11.27;;;10.57;;
351;SDS011;164;50.784;6.496;2023-04-15T08:50:45;11.60;;;10.70;;
351;SDS011;164;50.784;6.496;2023-04-15T08:53:14;10.32;;;9.80;;
351;SDS011;164;50.784;6.496;2023-04-15T08:55:42;12.80;;;10.38;;
351;SDS011;164;50.784;6.496;2023-04-15T08:58:10;10.90;;;10.30;;
351;SDS011;164;50.784;6.496;2023-04-15T09:00:37;12.50;;;10.65;;
351;SDS011;164;50.784;6.496;2023-04-15T09:03:05;11.38;;;10.77;;
351;SDS011;164;50.784;6.496;2023-04-15T09:05:34;12.80;;;9.70;;
351;SDS011;164;50.784;6.496;2023-04-15T09:08:02;11.00;;;10.25;;
351;SDS011;164;50.784;6.496;2023-04-15T09:10:31;11.07;;;10.20;;
351;SDS011;164;50.784;6.496;2023-04-15T09:13:00;13.02;;;10.90;;
351;SDS011;164;50.784;6.496;2023-04-15T09:15:28;9.43;;;8.93;;
351;SDS011;164;50.784;6.496;2023-04-15T09:17:56;10.55;;;9.98;;
351;SDS011;164;50.784;6.496;2023-04-15T09:20:23;10.30;;;9.77;;
351;SDS011;164;50.784;6.496;2023-04-15T09:22:51;9.38;;;8.88;;
351;SDS011;164;50.784;6.496;2023-04-15T09:25:25;8.25;;;7.82;;
351;SDS011;164;50.784;6.496;2023-04-15T09:27:54;10.13;;;8.48;;
351;SDS011;164;50.784;6.496;2023-04-15T09:30:22;8.25;;;7.85;;
351;SDS011;164;50.784;6.496;2023-04-15T09:32:50;7.65;;;7.25;;
351;SDS011;164;50.784;6.496;2023-04-15T09:35:17;8.40;;;7.95;;
351;SDS011;164;50.784;6.496;2023-04-15T09:37:44;8.65;;;8.15;;
351;SDS011;164;50.784;6.496;2023-04-15T09:40:12;8.40;;;7.95;;
351;SDS011;164;50.784;6.496;2023-04-15T09:45:37;11.57;;;10.27;;
351;SDS011;164;50.784;6.496;2023-04-15T09:48:17;9.88;;;9.38;;
351;SDS011;164;50.784;6.496;2023-04-15T09:50:45;9.15;;;8.65;;
351;SDS011;164;50.784;6.496;2023-04-15T09:53:17;10.63;;;10.02;;
351;SDS011;164;50.784;6.496;2023-04-15T09:55:45;10.10;;;8.85;;
351;SDS011;164;50.784;6.496;2023-04-15T09:58:19;5.78;;;5.47;;
351;SDS011;164;50.784;6.496;2023-04-15T10:00:48;5.10;;;4.43;;
351;SDS011;164;50.784;6.496;2023-04-15T10:03:17;4.57;;;4.28;;
351;SDS011;164;50.784;6.496;2023-04-15T10:05:45;4.28;;;3.88;;
351;SDS011;164;50.784;6.496;2023-04-15T10:08:14;4.40;;;4.10;;
351;SDS011;164;50.784;6.496;2023-04-15T10:10:43;4.50;;;4.20;;
351;SDS011;164;50.784;6.496;2023-04-15T10:13:11;5.25;;;4.82;;
351;SDS011;164;50.784;6.496;2023-04-15T10:15:41;7.00;;;4.90;;
351;SDS011;164;50.784;6.496;2023-04-15T10:18:13;4.20;;;3.95;;
351;SDS011;164;50.784;6.496;2023-04-15T10:20:42;5.00;;;4.78;;
351;SDS011;164;50.784;6.496;2023-04-15T10:23:10;6.68;;;5.10;;
351;SDS011;164;50.784;6.496;2023-04-15T10:25:38;8.18;;;5.35;;
351;SDS011;164;50.784;6.496;2023-04-15T10:28:05;5.90;;;5.60;;
351;SDS011;164;50.784;6.496;2023-04-15T10:30:33;5.43;;;5.15;;
351;SDS011;164;50.784;6.496;2023-04-15T10:33:00;4.97;;;4.68;;
351;SDS011;164;50.784;6.496;2023-04-15T10:35:31;5.55;;;4.93;;
351;SDS011;164;50.784;6.496;2023-04-15T10:37:58;5.10;;;4.80;;
351;SDS011;164;50.784;6.496;2023-04-15T10:40:26;5.57;;;5.30;;
351;SDS011;164;50.784;6.496;2023-04-15T10:42:55;6.00;;;4.15;;
351;SDS011;164;50.784;6.496;2023-04-15T10:45:24;4.40;;;4.10;;
351;SDS011;164;50.784;6.496;2023-04-15T10:47:53;5.45;;;5.15;;
351;SDS011;164;50.784;6.496;2023-04-15T10:50:21;5.93;;;5.63;;
351;SDS011;164;50.784;6.496;2023-04-15T10:52:51;5.70;;;5.43;;
351;SDS011;164;50.784;6.496;2023-04-15T10:55:19;5.88;;;5.57;;
351;SDS011;164;50.784;6.496;2023-04-15T10:57:48;7.72;;;5.03;;
351;SDS011;164;50.784;6.496;2023-04-15T11:00:17;6.15;;;4.22;;
351;SDS011;164;50.784;6.496;2023-04-15T11:02:48;4.25;;;3.75;;
351;SDS011;164;50.784;6.496;2023-04-15T11:05:18;5.50;;;4.75;;
351;SDS011;164;50.784;6.496;2023-04-15T11:07:46;9.25;;;4.13;;
351;SDS011;164;50.784;6.496;2023-04-15T11:13:02;6.80;;;4.32;;
351;SDS011;164;50.784;6.496;2023-04-15T11:15:31;3.72;;;3.40;;
351;SDS011;164;50.784;6.496;2023-04-15T11:18:12;4.25;;;3.15;;
351;SDS011;164;50.784;6.496;2023-04-15T11:20:40;3.40;;;3.20;;
351;SDS011;164;50.784;6.496;2023-04-15T11:23:09;3.10;;;2.90;;
351;SDS011;164;50.784;6.496;2023-04-15T11:25:36;2.85;;;2.65;;
351;SDS011;164;50.784;6.496;2023-04-15T11:28:05;5.15;;;3.08;;
351;SDS011;164;50.784;6.496;2023-04-15T11:30:33;3.85;;;2.90;;
351;SDS011;164;50.784;6.496;2023-04-15T11:33:02;3.20;;;3.00;;
351;SDS011;164;50.784;6.496;2023-04-15T11:35:29;2.67;;;2.47;;
351;SDS011;164;50.784;6.496;2023-04-15T11:37:56;3.10;;;2.38;;
351;SDS011;164;50.784;6.496;2023-04-15T11:40:25;3.20;;;3.00;;
351;SDS011;164;50.784;6.496;2023-04-15T11:43:02;3.00;;;2.88;;
351;SDS011;164;50.784;6.496;2023-04-15T11:45:32;3.05;;;2.85;;
351;SDS011;164;50.784;6.496;2023-04-15T11:48:06;3.35;;;2.58;;
351;SDS011;164;50.784;6.496;2023-04-15T11:50:33;3.30;;;3.10;;
351;SDS011;164;50.784;6.496;2023-04-15T11:53:01;3.40;;;3.20;;
351;SDS011;164;50.784;6.496;2023-04-15T11:55:29;4.82;;;2.97;;
351;SDS011;164;50.784;6.496;2023-04-15T11:58:07;3.40;;;3.10;;
351;SDS011;164;50.784;6.496;2023-04-15T12:00:36;2.53;;;2.35;;
351;SDS011;164;50.784;6.496;2023-04-15T12:03:12;2.72;;;2.53;;
351;SDS011;164;50.784;6.496;2023-04-15T12:08:21;2.95;;;2.70;;
351;SDS011;164;50.784;6.496;2023-04-15T12:10:48;2.92;;;2.80;;
351;SDS011;164;50.784;6.496;2023-04-15T12:13:15;3.00;;;2.80;;
351;SDS011;164;50.784;6.496;2023-04-15T12:15:44;4.05;;;2.70;;
351;SDS011;164;50.784;6.496;2023-04-15T12:18:15;3.83;;;3.50;;
351;SDS011;164;50.784;6.496;2023-04-15T12:20:43;5.25;;;4.95;;
351;SDS011;164;50.784;6.496;2023-04-15T12:23:11;4.53;;;4.22;;
351;SDS011;164;50.784;6.496;2023-04-15T12:25:38;4.88;;;4.57;;
351;SDS011;164;50.784;6.496;2023-04-15T12:28:09;4.80;;;4.50;;
351;SDS011;164;50.784;6.496;2023-04-15T12:30:49;4.38;;;4.07;;
351;SDS011;164;50.784;6.496;2023-04-15T12:33:16;3.92;;;3.78;;
351;SDS011;164;50.784;6.496;2023-04-15T12:35:43;4.47;;;4.20;;
351;SDS011;164;50.784;6.496;2023-04-15T12:38:11;4.53;;;4.30;;
351;SDS011;164;50.784;6.496;2023-04-15T12:40:38;4.40;;;4.00;;
351;SDS011;164;50.784;6.496;2023-04-15T12:43:05;3.97;;;3.75;;
351;SDS011;164;50.784;6.496;2023-04-15T12:45:33;4.32;;;4.00;;
351;SDS011;164;50.784;6.496;2023-04-15T12:48:01;3.88;;;3.15;;
351;SDS011;164;50.784;6.496;2023-04-15T12:50:28;3.70;;;3.50;;
351;SDS011;164;50.784;6.496;2023-04-15T12:52:56;3.70;;;3.50;;
351;SDS011;164;50.784;6.496;2023-04-15T12:55:23;3.65;;;3.45;;
351;SDS011;164;50.784;6.496;2023-04-15T12:57:50;3.10;;;2.90;;
351;SDS011;164;50.784;6.496;2023-04-15T13:00:18;3.40;;;3.20;;
351;SDS011;164;50.784;6.496;2023-04-15T13:02:45;4.55;;;3.00;;
351;SDS011;164;50.784;6.496;2023-04-15T13:05:14;3.28;;;3.10;;
351;SDS011;164;50.784;6.496;2023-04-15T13:07:41;4.95;;;4.65;;
351;SDS011;164;50.784;6.496;2023-04-15T13:10:09;6.13;;;4.43;;
351;SDS011;164;50.784;6.496;2023-04-15T13:12:36;4.25;;;3.97;;
351;SDS011;164;50.784;6.496;2023-04-15T13:15:04;4.20;;;3.95;;
351;SDS011;164;50.784;6.496;2023-04-15T13:17:31;4.13;;;3.90;;
351;SDS011;164;50.784;6.496;2023-04-15T13:19:58;4.05;;;3.85;;
351;SDS011;164;50.784;6.496;2023-04-15T13:22:27;4.43;;;4.13;;
351;SDS011;164;50.784;6.496;2023-04-15T13:24:54;3.80;;;3.60;;
351;SDS011;164;50.784;6.496;2023-04-15T13:27:22;4.95;;;3.78;;
351;SDS011;164;50.784;6.496;2023-04-15T13:29:49;3.75;;;3.55;;
351;SDS011;164;50.784;6.496;2023-04-15T13:32:16;4.43;;;4.20;;
351;SDS011;164;50.784;6.496;2023-04-15T13:34:44;4.00;;;3.80;;
351;SDS011;164;50.784;6.496;2023-04-15T13:37:11;3.90;;;3.70;;
351;SDS011;164;50.784;6.496;2023-04-15T13:39:39;3.33;;;3.13;;
351;SDS011;164;50.784;6.496;2023-04-15T13:42:07;3.80;;;3.20;;
351;SDS011;164;50.784;6.496;2023-04-15T13:44:34;3.25;;;3.05;;
351;SDS011;164;50.784;6.496;2023-04-15T13:47:01;4.93;;;3.92;;
351;SDS011;164;50.784;6.496;2023-04-15T13:49:28;4.60;;;3.80;;
351;SDS011;164;50.784;6.496;2023-04-15T13:51:56;3.65;;;3.45;;
351;SDS011;164;50.784;6.496;2023-04-15T13:54:23;6.35;;;3.75;;
351;SDS011;164;50.784;6.496;2023-04-15T13:56:53;3.58;;;3.17;;
351;SDS011;164;50.784;6.496;2023-04-15T13:59:21;3.17;;;2.67;;
351;SDS011;164;50.784;6.496;2023-04-15T14:01:48;2.67;;;2.47;;
351;SDS011;164;50.784;6.496;2023-04-15T14:04:15;4.90;;;3.10;;
351;SDS011;164;50.784;6.496;2023-04-15T14:06:43;3.55;;;3.20;;
351;SDS011;164;50.784;6.496;2023-04-15T14:09:10;5.13;;;3.20;;
351;SDS011;164;50.784;6.496;2023-04-15T14:11:39;2.60;;;2.40;;
351;SDS011;164;50.784;6.496;2023-04-15T14:14:08;3.05;;;2.75;;
351;SDS011;164;50.784;6.496;2023-04-15T14:16:35;3.25;;;3.05;;
351;SDS011;164;50.784;6.496;2023-04-15T14:19:05;2.80;;;2.60;;
351;SDS011;164;50.784;6.496;2023-04-15T14:21:32;3.60;;;3.20;;
351;SDS011;164;50.784;6.496;2023-04-15T14:23:59;3.70;;;3.50;;
351;SDS011;164;50.784;6.496;2023-04-15T14:26:29;2.60;;;2.40;;
351;SDS011;164;50.784;6.496;2023-04-15T14:28:56;3.75;;;3.42;;
351;SDS011;164;50.784;6.496;2023-04-15T14:31:24;3.88;;;3.67;;
351;SDS011;164;50.784;6.496;2023-04-15T14:33:55;3.35;;;3.15;;
351;SDS011;164;50.784;6.496;2023-04-15T14:36:22;4.88;;;4.00;;
351;SDS011;164;50.784;6.496;2023-04-15T14:38:49;4.70;;;4.40;;
351;SDS011;164;50.784;6.496;2023-04-15T14:41:16;3.70;;;3.50;;
351;SDS011;164;50.784;6.496;2023-04-15T14:43:43;3.63;;;3.45;;
351;SDS011;164;50.784;6.496;2023-04-15T14:46:10;3.28;;;3.10;;
351;SDS011;164;50.784;6.496;2023-04-15T14:48:40;3.55;;;3.35;;
351;SDS011;164;50.784;6.496;2023-04-15T14:51:07;3.70;;;2.92;;
351;SDS011;164;50.784;6.496;2023-04-15T14:53:34;3.92;;;3.20;;
351;SDS011;164;50.784;6.496;2023-04-15T14:56:01;4.40;;;3.33;;
351;SDS011;164;50.784;6.496;2023-04-15T14:58:29;2.90;;;2.70;;
351;SDS011;164;50.784;6.496;2023-04-15T15:00:57;6.97;;;3.38;;
351;SDS011;164;50.784;6.496;2023-04-15T15:03:26;3.10;;;2.83;;
351;SDS011;164;50.784;6.496;2023-04-15T15:05:54;3.40;;;3.10;;
351;SDS011;164;50.784;6.496;2023-04-15T15:08:22;3.50;;;3.30;;
351;SDS011;164;50.784;6.496;2023-04-15T15:10:49;2.95;;;2.75;;
351;SDS011;164;50.784;6.496;2023-04-15T15:13:16;2.90;;;2.70;;
351;SDS011;164;50.784;6.496;2023-04-15T15:15:44;2.78;;;2.60;;
351;SDS011;164;50.784;6.496;2023-04-15T15:18:13;3.85;;;3.65;;
351;SDS011;164;50.784;6.496;2023-04-15T15:20:41;5.63;;;3.58;;
351;SDS011;164;50.784;6.496;2023-04-15T15:23:09;3.40;;;3.28;;
351;SDS011;164;50.784;6.496;2023-04-15T15:25:37;3.60;;;3.40;;
351;SDS011;164;50.784;6.496;2023-04-15T15:28:04;3.45;;;3.25;;
351;SDS011;164;50.784;6.496;2023-04-15T15:30:31;3.45;;;3.25;;
351;SDS011;164;50.784;6.496;2023-04-15T15:32:59;3.05;;;2.85;;
351;SDS011;164;50.784;6.496;2023-04-15T15:35:29;5.30;;;3.60;;
351;SDS011;164;50.784;6.496;2023-04-15T15:37:56;3.25;;;3.05;;
351;SDS011;164;50.784;6.496;2023-04-15T15:40:26;6.38;;;3.15;;
351;SDS011;164;50.784;6.496;2023-04-15T15:42:53;2.80;;;2.60;;
351;SDS011;164;50.784;6.496;2023-04-15T15:45:26;2.50;;;2.38;;
351;SDS011;164;50.784;6.496;2023-04-15T15:47:56;3.25;;;3.05;;
351;SDS011;164;50.784;6.496;2023-04-15T15:50:24;2.80;;;2.60;;
351;SDS011;164;50.784;6.496;2023-04-15T15:52:51;3.35;;;3.15;;
351;SDS011;164;50.784;6.496;2023-04-15T15:55:19;3.63;;;3.08;;
351;SDS011;164;50.784;6.496;2023-04-15T15:57:47;2.50;;;2.30;;
351;SDS011;164;50.784;6.496;2023-04-15T16:00:15;2.67;;;2.50;;
351;SDS011;164;50.784;6.496;2023-04-15T16:02:43;2.72;;;2.17;;